Blanchard, North Dakota
Current Conditions -  °F | °C
As of 5:53 AM on Monday 20 Oct 2014 (Local Time) from KFAR Reporting Station
Clear Clear  
Wind Chill: 33°   Ceiling: Unl
Heat Index: 39°   Visibility: 10mi
Dew Point: 34°   Wind: 8mph
Humidity: 82%   Direction: 350°N
Pressure: 30.01"   Gusts: NA
Location:  47.34°N, 97.22°W
Report Text: KFAR 201053Z 35007KT 10SM CLR 04/01 A3001 RMK AO2 SLP168 T00390011
Loading
Personal Weather Stations






























Interactive Weather Map
Tropical Storm Tracking
New forecast layout! Learn more

10-Day Weather Forecast

Advertisements
Track Severe Weather on mobile